createdAt,value
2023-01-05T00:01:39.548Z,99.90
2023-01-05T00:04:28.224Z,99.90
2023-01-05T00:07:16.886Z,99.90
2023-01-05T00:10:26.096Z,99.90
2023-01-05T00:13:31.871Z,99.90
2023-01-05T00:16:37.488Z,99.90
2023-01-05T00:19:45.052Z,99.90
2023-01-05T00:22:35.415Z,99.90
2023-01-05T00:25:25.971Z,99.90
2023-01-05T00:28:14.579Z,99.90
2023-01-05T00:31:03.929Z,99.90
2023-01-05T00:33:52.532Z,99.90
2023-01-05T00:36:43.089Z,99.90
2023-01-05T00:39:31.681Z,99.90
2023-01-05T00:42:20.689Z,99.90
2023-01-05T00:45:11.619Z,99.90
2023-01-05T00:48:00.304Z,99.90
2023-01-05T00:50:51.172Z,99.90
2023-01-05T00:53:41.170Z,99.90
2023-01-05T00:56:29.773Z,99.80
2023-01-05T00:59:18.964Z,98.40
2023-01-05T01:02:08.227Z,95.60
2023-01-05T01:04:56.984Z,92.40
2023-01-05T01:07:45.663Z,89.70
2023-01-05T01:10:35.647Z,88.50
2023-01-05T01:13:25.397Z,87.40
2023-01-05T01:16:16.452Z,82.60
2023-01-05T01:19:05.790Z,83.30
2023-01-05T01:21:54.955Z,78.10
2023-01-05T01:24:43.607Z,75.00
2023-01-05T01:27:34.212Z,72.90
2023-01-05T01:30:22.803Z,71.10
2023-01-05T01:33:11.402Z,69.80
2023-01-05T01:36:00.222Z,69.40
2023-01-05T01:38:48.834Z,68.40
2023-01-05T01:41:37.547Z,66.90
2023-01-05T01:44:59.946Z,65.60
2023-01-05T01:47:52.407Z,62.20
2023-01-05T01:50:44.562Z,60.80
2023-01-05T01:53:37.227Z,58.80
2023-01-05T01:56:27.829Z,56.30
2023-01-05T01:59:17.491Z,54.80
2023-01-05T02:02:09.995Z,53.80
2023-01-05T02:05:03.787Z,50.40
2023-01-05T02:07:52.391Z,51.90
2023-01-05T02:10:55.021Z,53.00
2023-01-05T02:13:57.318Z,53.80
2023-01-05T02:16:55.306Z,52.10
2023-01-05T02:20:25.808Z,53.80
2023-01-05T02:23:44.058Z,52.70
2023-01-05T02:27:01.627Z,51.30
2023-01-05T02:30:06.662Z,52.70
2023-01-05T02:33:01.847Z,52.20
2023-01-05T02:35:58.487Z,53.80
2023-01-05T02:38:52.503Z,54.50
2023-01-05T02:41:49.503Z,54.60
2023-01-05T02:44:38.212Z,56.60
2023-01-05T02:47:41.707Z,54.30
2023-01-05T02:50:38.737Z,53.90
2023-01-05T02:53:30.514Z,53.70
2023-01-05T02:56:23.182Z,49.60
2023-01-05T02:59:18.898Z,48.60
2023-01-05T03:02:11.332Z,48.30
2023-01-05T03:05:06.444Z,46.90
2023-01-05T03:08:07.678Z,48.00
2023-01-05T03:11:23.017Z,47.20
2023-01-05T03:14:15.971Z,49.10
2023-01-05T03:17:07.980Z,47.40
2023-01-05T03:19:57.880Z,47.70
2023-01-05T03:23:05.295Z,48.80
2023-01-05T03:26:14.271Z,50.10
2023-01-05T03:29:21.747Z,50.40
2023-01-05T03:32:35.550Z,50.80
2023-01-05T03:35:31.923Z,53.40
2023-01-05T03:38:27.129Z,54.50
2023-01-05T03:41:19.062Z,54.70
2023-01-05T03:44:08.332Z,55.30
2023-01-05T03:46:57.540Z,57.10
2023-01-05T03:49:46.187Z,57.70
2023-01-05T03:52:34.756Z,59.60
2023-01-05T03:55:23.419Z,58.90
2023-01-05T03:58:13.525Z,58.90
2023-01-05T04:01:02.278Z,60.90
2023-01-05T04:03:51.027Z,61.00
2023-01-05T04:06:39.707Z,60.90
2023-01-05T04:09:28.323Z,61.00
2023-01-05T04:12:16.887Z,58.90
2023-01-05T04:15:08.196Z,60.80
2023-01-05T04:17:56.804Z,60.30
2023-01-05T04:20:45.408Z,60.00
2023-01-05T04:23:34.473Z,59.90
2023-01-05T04:26:23.100Z,59.70
2023-01-05T04:29:12.345Z,60.20
2023-01-05T04:32:02.368Z,60.80
2023-01-05T04:34:50.984Z,61.00
2023-01-05T04:37:39.811Z,60.50
2023-01-05T04:40:28.423Z,59.40
2023-01-05T04:43:17.037Z,61.50
2023-01-05T04:46:06.027Z,61.70
2023-01-05T04:48:56.053Z,61.90
2023-01-05T04:51:44.665Z,62.70
2023-01-05T04:54:33.330Z,63.50
2023-01-05T04:57:21.984Z,63.80
2023-01-05T05:00:11.830Z,65.00
2023-01-05T05:03:00.966Z,65.60
2023-01-05T05:05:51.045Z,65.70
2023-01-05T05:08:39.625Z,66.20
2023-01-05T05:11:28.233Z,66.70
2023-01-05T05:14:16.982Z,67.00
2023-01-05T05:17:05.714Z,66.30
2023-01-05T05:19:54.318Z,67.20
2023-01-05T05:22:44.338Z,67.80
2023-01-05T05:25:32.939Z,68.60
2023-01-05T05:28:23.164Z,69.50
2023-01-05T05:31:11.765Z,70.10
2023-01-05T05:34:00.396Z,70.10
2023-01-05T05:36:49.500Z,70.80
2023-01-05T05:39:39.484Z,71.60
2023-01-05T05:42:28.110Z,71.60
2023-01-05T05:45:16.714Z,72.40
2023-01-05T05:48:06.427Z,72.00
2023-01-05T05:50:55.041Z,72.50
2023-01-05T05:53:43.637Z,73.00
2023-01-05T05:56:33.857Z,72.00
2023-01-05T05:59:22.534Z,72.60
2023-01-05T06:02:11.548Z,72.00
2023-01-05T06:05:00.287Z,71.60
2023-01-05T06:07:48.905Z,73.20
2023-01-05T06:10:37.496Z,73.70
2023-01-05T06:13:27.634Z,73.60
2023-01-05T06:16:16.305Z,74.20
2023-01-05T06:19:04.963Z,73.70
2023-01-05T06:21:53.544Z,73.80
2023-01-05T06:24:42.383Z,74.10
2023-01-05T06:27:31.003Z,74.80
2023-01-05T06:30:21.862Z,74.90
2023-01-05T06:33:10.491Z,75.40
2023-01-05T06:35:59.711Z,74.90
2023-01-05T06:38:48.375Z,75.70
2023-01-05T06:41:37.109Z,77.80
2023-01-05T06:44:25.689Z,77.20
2023-01-05T06:47:15.746Z,77.00
2023-01-05T06:50:04.417Z,78.10
2023-01-05T06:52:53.026Z,78.80
2023-01-05T06:55:41.593Z,79.50
2023-01-05T06:58:30.198Z,80.70
2023-01-05T07:01:19.695Z,81.50
2023-01-05T07:04:09.934Z,82.20
2023-01-05T07:06:58.568Z,82.90
2023-01-05T07:09:49.567Z,83.50
2023-01-05T07:12:38.273Z,84.30
2023-01-05T07:15:26.873Z,84.20
2023-01-05T07:18:15.474Z,84.70
2023-01-05T07:21:05.642Z,85.00
2023-01-05T07:23:54.239Z,85.10
2023-01-05T07:26:42.813Z,85.60
2023-01-05T07:29:31.600Z,86.20
2023-01-05T07:32:20.235Z,86.30
2023-01-05T07:35:09.541Z,86.90
2023-01-05T07:37:59.551Z,87.40
2023-01-05T07:40:48.146Z,87.20
2023-01-05T07:43:36.927Z,86.90
2023-01-05T07:46:25.611Z,86.90
2023-01-05T07:49:15.432Z,88.00
2023-01-05T07:52:04.187Z,87.90
2023-01-05T07:54:54.152Z,87.80
2023-01-05T07:57:42.927Z,87.00
2023-01-05T08:00:31.597Z,86.60
2023-01-05T08:03:20.507Z,86.30
2023-01-05T08:06:10.951Z,86.00
2023-01-05T08:09:19.551Z,86.40
2023-01-05T08:12:09.712Z,85.70
2023-01-05T08:14:58.528Z,86.00
2023-01-05T08:17:47.116Z,86.30
2023-01-05T08:20:35.707Z,86.60
2023-01-05T08:23:27.326Z,87.00
2023-01-05T08:26:17.771Z,87.70
2023-01-05T08:29:07.785Z,86.50
2023-01-05T08:31:56.456Z,87.30
2023-01-05T08:34:47.949Z,88.40
2023-01-05T08:37:40.817Z,88.90
2023-01-05T08:40:29.896Z,88.50
2023-01-05T08:43:18.529Z,88.70
2023-01-05T08:46:08.660Z,88.80
2023-01-05T08:54:21.518Z,88.70
2023-01-05T08:57:10.105Z,87.90
2023-01-05T08:59:58.734Z,87.40
2023-01-05T09:02:49.427Z,86.80
2023-01-05T09:05:38.890Z,87.60
2023-01-05T09:08:27.517Z,87.10
2023-01-05T09:11:19.193Z,87.10
2023-01-05T09:14:07.852Z,87.70
2023-01-05T09:17:07.116Z,89.70
2023-01-05T09:19:58.038Z,88.60
2023-01-05T09:22:46.642Z,88.30
2023-01-05T09:25:35.361Z,87.80
2023-01-05T09:28:23.994Z,86.40
2023-01-05T09:31:14.721Z,86.40
2023-01-05T09:34:03.434Z,87.10
2023-01-05T09:36:53.496Z,86.90
2023-01-05T09:39:42.179Z,87.70
2023-01-05T09:42:34.154Z,87.70
2023-01-05T09:45:27.618Z,88.70
2023-01-05T09:48:17.800Z,89.40
2023-01-05T09:51:06.713Z,89.20
2023-01-05T09:53:57.507Z,86.80
2023-01-05T10:00:00.399Z,86.10
2023-01-05T10:02:52.232Z,86.50
2023-01-05T10:05:43.508Z,87.60
2023-01-05T10:08:36.633Z,87.80
2023-01-05T10:11:53.594Z,88.40
2023-01-05T10:14:46.835Z,88.10
2023-01-05T10:17:41.897Z,87.80
2023-01-05T10:20:45.102Z,87.00
2023-01-05T10:23:52.454Z,87.80
2023-01-05T10:27:23.083Z,88.70
2023-01-05T10:30:04.174Z,87.50
2023-01-05T10:33:27.463Z,87.30
2023-01-05T10:36:48.895Z,87.70
2023-01-05T10:39:56.271Z,84.30
2023-01-05T10:42:55.492Z,84.10
2023-01-05T10:46:11.206Z,83.60
2023-01-05T10:48:52.718Z,82.90
2023-01-05T10:51:41.383Z,82.70
2023-01-05T10:54:37.643Z,81.20
2023-01-05T10:57:40.433Z,82.20
2023-01-05T11:00:44.150Z,82.30
2023-01-05T11:04:24.019Z,81.90
2023-01-05T11:06:48.847Z,79.00
2023-01-05T11:09:42.273Z,80.30
2023-01-05T11:12:30.892Z,77.70
2023-01-05T11:15:19.933Z,75.80
2023-01-05T11:18:27.035Z,73.60
2023-01-05T11:21:17.508Z,73.50
2023-01-05T11:24:26.648Z,74.10
2023-01-05T11:27:25.747Z,71.50
2023-01-05T11:30:24.750Z,70.50
2023-01-05T11:33:26.075Z,67.20
2023-01-05T11:36:16.540Z,66.10
2023-01-05T11:39:05.565Z,64.60
2023-01-05T11:42:05.558Z,65.00
2023-01-05T11:44:56.469Z,60.10
2023-01-05T11:47:47.176Z,59.80
2023-01-05T11:50:47.409Z,54.80
2023-01-05T11:53:41.255Z,53.50
2023-01-05T11:56:29.944Z,47.00
2023-01-05T11:59:30.892Z,50.50
2023-01-05T12:03:04.587Z,48.30
2023-01-05T12:05:58.416Z,47.60
2023-01-05T12:08:55.450Z,47.40
2023-01-05T12:11:50.756Z,45.20
2023-01-05T12:15:02.197Z,41.00
2023-01-05T12:17:59.130Z,42.10
2023-01-05T12:21:06.094Z,42.80
2023-01-05T12:24:40.058Z,45.10
2023-01-05T12:27:39.035Z,43.60
2023-01-05T12:34:06.141Z,45.70
2023-01-05T12:37:22.992Z,50.70
2023-01-05T12:40:37.269Z,51.40
2023-01-05T12:43:38.081Z,52.90
2023-01-05T12:46:38.543Z,53.10
2023-01-05T12:49:32.167Z,51.10
2023-01-05T12:52:29.130Z,47.20
2023-01-05T12:55:21.879Z,43.40
2023-01-05T12:58:16.131Z,44.50
2023-01-05T13:01:07.841Z,48.90
2023-01-05T13:04:00.471Z,51.40
2023-01-05T13:06:51.568Z,51.90
2023-01-05T13:09:44.220Z,50.80
2023-01-05T13:12:35.162Z,49.60
2023-01-05T13:15:29.413Z,48.60
2023-01-05T13:18:20.312Z,50.10
2023-01-05T13:21:14.967Z,50.40
2023-01-05T13:24:08.524Z,51.10
2023-01-05T13:26:59.693Z,52.80
2023-01-05T13:29:54.254Z,53.90
2023-01-05T13:33:09.749Z,53.20
2023-01-05T13:36:11.889Z,52.10
2023-01-05T13:39:28.112Z,53.40
2023-01-05T13:42:34.610Z,56.10
2023-01-05T13:46:02.164Z,57.90
2023-01-05T13:49:17.204Z,60.40
2023-01-05T13:52:11.154Z,64.40
2023-01-05T13:55:02.851Z,67.60
2023-01-05T13:57:55.598Z,70.20
2023-01-05T14:00:54.803Z,71.20
2023-01-05T14:03:50.610Z,72.40
2023-01-05T14:06:44.525Z,74.40
2023-01-05T14:09:38.984Z,72.70
2023-01-05T14:12:50.073Z,75.40
2023-01-05T14:15:42.330Z,76.50
2023-01-05T14:18:52.384Z,78.00
2023-01-05T14:22:03.934Z,78.50
2023-01-05T14:24:54.299Z,79.40
2023-01-05T14:28:18.518Z,80.20
2023-01-05T14:31:43.675Z,81.30
2023-01-05T14:34:33.761Z,82.10
2023-01-05T14:37:25.573Z,83.00
2023-01-05T14:40:25.945Z,82.80
2023-01-05T14:43:26.741Z,83.60
2023-01-05T14:46:16.475Z,82.10
2023-01-05T14:49:09.064Z,81.70
2023-01-05T14:52:00.953Z,83.30
2023-01-05T14:55:37.608Z,81.90
2023-01-05T14:58:53.375Z,82.20
2023-01-05T15:01:49.938Z,82.00
2023-01-05T15:04:41.896Z,81.90
2023-01-05T15:07:42.701Z,82.60
2023-01-05T15:10:58.465Z,81.50
2023-01-05T15:14:27.546Z,81.40
2023-01-05T15:17:48.677Z,80.20
2023-01-05T15:21:18.815Z,80.80
2023-01-05T15:24:46.479Z,81.00
2023-01-05T15:27:53.689Z,80.70
2023-01-05T15:31:17.206Z,82.20
2023-01-05T15:34:24.330Z,83.30
2023-01-05T15:37:18.105Z,83.80
2023-01-05T15:40:27.323Z,83.80
2023-01-05T15:43:18.277Z,83.00
2023-01-05T15:46:07.413Z,83.00
2023-01-05T15:48:56.454Z,82.90
2023-01-05T15:51:51.969Z,82.00
2023-01-05T15:54:40.936Z,81.70
2023-01-05T15:57:31.323Z,80.50
2023-01-05T16:00:23.879Z,80.00
2023-01-05T16:03:22.614Z,80.60
2023-01-05T16:06:15.805Z,83.30
2023-01-05T16:09:12.258Z,87.50
2023-01-05T16:12:05.512Z,90.60
2023-01-05T16:15:01.457Z,93.40
2023-01-05T16:17:51.881Z,96.00
2023-01-05T16:20:46.597Z,98.50
2023-01-05T16:23:38.839Z,99.90
2023-01-05T16:26:27.977Z,99.90
2023-01-05T16:29:32.656Z,99.90
2023-01-05T16:32:36.289Z,99.90
2023-01-05T16:35:33.201Z,99.90
2023-01-05T16:38:26.938Z,99.90
2023-01-05T16:41:22.627Z,99.90
2023-01-05T16:44:14.552Z,99.90
2023-01-05T16:47:08.355Z,99.90
2023-01-05T16:49:59.764Z,99.90
2023-01-05T16:52:53.548Z,99.90
2023-01-05T16:55:42.847Z,99.90
2023-01-05T16:58:36.740Z,99.90
2023-01-05T17:01:28.094Z,99.90
2023-01-05T17:04:18.226Z,99.90
2023-01-05T17:07:10.995Z,99.90
2023-01-05T17:09:59.685Z,99.90
2023-01-05T17:12:57.636Z,99.90
2023-01-05T17:15:47.999Z,99.90
2023-01-05T17:18:36.569Z,99.90
2023-01-05T17:21:28.280Z,99.90
2023-01-05T17:24:18.700Z,99.90
2023-01-05T17:27:07.317Z,99.90
2023-01-05T17:32:44.425Z,99.90
2023-01-05T17:35:33.210Z,99.90
2023-01-05T17:38:21.826Z,99.90
2023-01-05T17:41:16.079Z,99.90
2023-01-05T17:44:05.930Z,99.90
2023-01-05T17:46:54.507Z,99.90
2023-01-05T17:49:43.896Z,99.90
2023-01-05T17:52:32.672Z,99.90
2023-01-05T17:55:21.488Z,99.90
2023-01-05T17:58:13.851Z,99.90
2023-01-05T18:01:02.518Z,99.90
2023-01-05T18:03:51.182Z,99.90
2023-01-05T18:06:39.768Z,99.90
2023-01-05T18:09:28.411Z,99.90
2023-01-05T18:12:17.009Z,99.90
2023-01-05T18:15:08.695Z,99.90
2023-01-05T18:17:58.212Z,99.90
2023-01-05T18:20:46.863Z,99.90
2023-01-05T18:23:35.711Z,99.90
2023-01-05T18:26:24.291Z,99.90
2023-01-05T18:29:12.891Z,99.90
2023-01-05T18:32:02.941Z,99.90
2023-01-05T18:34:51.538Z,99.90
2023-01-05T18:37:40.838Z,99.90
2023-01-05T18:40:29.613Z,99.90
2023-01-05T18:43:18.553Z,99.90
2023-01-05T18:46:07.324Z,99.90
2023-01-05T18:48:57.422Z,99.90
2023-01-05T18:51:45.978Z,99.90
2023-01-05T18:54:34.720Z,99.90
2023-01-05T18:57:23.689Z,99.90
2023-01-05T19:00:13.622Z,99.90
2023-01-05T19:03:02.965Z,99.90
2023-01-05T19:05:52.986Z,99.90
2023-01-05T19:08:42.102Z,99.90
2023-01-05T19:11:30.660Z,99.90
2023-01-05T19:14:19.348Z,99.90
2023-01-05T19:17:07.943Z,99.90
2023-01-05T19:19:57.626Z,99.90
2023-01-05T19:22:48.247Z,99.90
2023-01-05T19:25:36.842Z,99.90
2023-01-05T19:28:25.423Z,99.90
2023-01-05T19:31:15.601Z,99.90
2023-01-05T19:34:04.212Z,99.90
2023-01-05T19:36:52.756Z,99.90
2023-01-05T19:39:42.740Z,99.90
2023-01-05T19:42:32.649Z,99.90
2023-01-05T19:45:21.274Z,99.90
2023-01-05T19:48:09.868Z,99.90
2023-01-05T19:50:59.781Z,99.90
2023-01-05T19:53:55.556Z,99.90
2023-01-05T19:56:46.417Z,99.90
2023-01-05T19:59:35.009Z,99.90
2023-01-05T20:02:23.571Z,99.90
2023-01-05T20:05:14.139Z,99.90
2023-01-05T20:08:02.766Z,99.90
2023-01-05T20:10:51.389Z,99.90
2023-01-05T20:13:42.009Z,99.90
2023-01-05T20:16:30.627Z,99.90
2023-01-05T20:19:20.053Z,99.90
2023-01-05T20:22:13.837Z,99.90
2023-01-05T20:25:02.798Z,99.90
2023-01-05T20:27:51.453Z,99.90
2023-01-05T20:30:41.502Z,99.90
2023-01-05T20:33:30.262Z,99.90
2023-01-05T20:36:18.973Z,99.90
2023-01-05T20:39:09.161Z,99.90
2023-01-05T20:42:04.733Z,99.90
2023-01-05T20:44:53.556Z,99.90
2023-01-05T20:47:47.731Z,99.90
2023-01-05T20:50:38.044Z,99.90
2023-01-05T20:53:26.886Z,99.90
2023-01-05T20:56:17.403Z,99.90
2023-01-05T20:59:06.574Z,99.90
2023-01-05T21:01:55.999Z,99.90
2023-01-05T21:04:46.046Z,99.90
2023-01-05T21:07:34.658Z,99.90
2023-01-05T21:10:23.269Z,99.90
2023-01-05T21:13:30.431Z,99.90
2023-01-05T21:16:22.850Z,99.90
2023-01-05T21:19:12.774Z,99.90
2023-01-05T21:22:03.117Z,99.90
2023-01-05T21:24:51.713Z,99.90
2023-01-05T21:27:44.026Z,99.90
2023-01-05T21:30:33.855Z,99.90
2023-01-05T21:33:22.436Z,99.90
2023-01-05T21:36:15.650Z,99.90
2023-01-05T21:39:08.589Z,99.90
2023-01-05T21:42:14.512Z,99.90
2023-01-05T21:45:03.129Z,99.90
2023-01-05T21:47:56.700Z,99.90
2023-01-05T21:51:02.745Z,99.90
2023-01-05T21:54:09.023Z,99.90
2023-01-05T21:57:00.029Z,99.90
2023-01-05T21:59:48.992Z,99.90
2023-01-05T22:02:37.679Z,99.90
2023-01-05T22:05:26.375Z,99.90
2023-01-05T22:08:14.964Z,99.90
2023-01-05T22:11:05.163Z,99.90
2023-01-05T22:13:55.112Z,99.90
2023-01-05T22:16:43.829Z,99.90
2023-01-05T22:19:32.560Z,99.90
2023-01-05T22:22:21.426Z,99.90
2023-01-05T22:25:10.815Z,99.90
2023-01-05T22:27:59.417Z,99.90
2023-01-05T22:30:49.418Z,99.90
2023-01-05T22:33:40.215Z,99.90
2023-01-05T22:36:30.475Z,99.90
2023-01-05T22:39:19.081Z,99.90
2023-01-05T22:42:08.047Z,99.90
2023-01-05T22:44:56.601Z,99.90
2023-01-05T22:47:46.609Z,99.90
2023-01-05T22:50:35.228Z,99.90
2023-01-05T22:53:23.821Z,99.90
2023-01-05T22:56:13.793Z,99.90
2023-01-05T22:59:03.356Z,99.90
2023-01-05T23:01:51.994Z,99.90
2023-01-05T23:04:42.014Z,99.90
2023-01-05T23:07:30.628Z,99.90
2023-01-05T23:10:19.531Z,99.90
2023-01-05T23:13:08.769Z,99.90
2023-01-05T23:15:59.399Z,99.90
2023-01-05T23:18:49.780Z,99.90
2023-01-05T23:21:39.909Z,99.90
2023-01-05T23:24:28.508Z,99.90
2023-01-05T23:27:17.212Z,99.90
2023-01-05T23:30:06.850Z,99.90
2023-01-05T23:32:55.460Z,99.90
2023-01-05T23:35:44.911Z,99.90
2023-01-05T23:38:35.210Z,99.90
2023-01-05T23:41:23.835Z,99.90
2023-01-05T23:44:14.165Z,99.90
2023-01-05T23:47:02.767Z,99.90
2023-01-05T23:49:51.390Z,99.90
2023-01-05T23:52:39.996Z,99.90
2023-01-05T23:55:30.300Z,99.90
2023-01-05T23:58:19.002Z,99.90
